Aviation Digital Data Service (ADDS)

Output produced by METARs form (1633 UTC 16 June 2019)
found at http://www.aviationweather.gov/metar/data/
 
METAR text: HKJK 161500Z 15007KT 9999 BKN022 FEW080 23/13 Q1021 NOSIG
Conditions at: HKJK (NAIROBI/JOMO KEN, KE) observed 1500 UTC 16 June 2019
Temperature: 23.0°C (73°F)
Dewpoint: 13.0°C (55°F) [RH = 53%]
Pressure (altimeter): 30.15 inches Hg (1021.0 mb)
Winds: from the SSE (150 degrees) at 8 MPH (7 knots; 3.6 m/s)
Visibility: 6 or more miles (10+ km)
Ceiling: 2200 feet AGL
Clouds: broken clouds at 2200 feet AGL
few clouds at 8000 feet AGL
Weather: no significant weather observed at this time

METAR text: HKJK 161430Z 16005KT BKN022 FEW090 24/14 Q1021
Conditions at: HKJK (NAIROBI/JOMO KEN, KE) observed 1430 UTC 16 June 2019
Temperature: 24.0°C (75°F)
Dewpoint: 14.0°C (57°F) [RH = 54%]
Pressure (altimeter): 30.15 inches Hg (1021.0 mb)
Winds: from the SSE (160 degrees) at 6 MPH (5 knots; 2.6 m/s)
Visibility: missing
Ceiling: 2200 feet AGL
Clouds: broken clouds at 2200 feet AGL
few clouds at 9000 feet AGL
Weather: no significant weather observed at this time

METAR text: HKJK 161400Z 14004KT 9999 BKN023 24/14 Q1021 NOSIG
Conditions at: HKJK (NAIROBI/JOMO KEN, KE) observed 1400 UTC 16 June 2019
Temperature: 24.0°C (75°F)
Dewpoint: 14.0°C (57°F) [RH = 54%]
Pressure (altimeter): 30.15 inches Hg (1021.0 mb)
Winds: from the SE (140 degrees) at 5 MPH (4 knots; 2.1 m/s)
Visibility: 6 or more miles (10+ km)
Ceiling: 2300 feet AGL
Clouds: broken clouds at 2300 feet AGL
Weather: no significant weather observed at this time

METAR text: HKJK 161330Z 17006KT 9999 BKN023 24/14 Q1021 NOSIG
Conditions at: HKJK (NAIROBI/JOMO KEN, KE) observed 1330 UTC 16 June 2019
Temperature: 24.0°C (75°F)
Dewpoint: 14.0°C (57°F) [RH = 54%]
Pressure (altimeter): 30.15 inches Hg (1021.0 mb)
Winds: from the S (170 degrees) at 7 MPH (6 knots; 3.1 m/s)
Visibility: 6 or more miles (10+ km)
Ceiling: 2300 feet AGL
Clouds: broken clouds at 2300 feet AGL
Weather: no significant weather observed at this time

METAR text: HKJK 161300Z 20005KT 9999 SCT024 25/15 Q1021 NOSIG
Conditions at: HKJK (NAIROBI/JOMO KEN, KE) observed 1300 UTC 16 June 2019
Temperature: 25.0°C (77°F)
Dewpoint: 15.0°C (59°F) [RH = 54%]
Pressure (altimeter): 30.15 inches Hg (1021.0 mb)
Winds: from the SSW (200 degrees) at 6 MPH (5 knots; 2.6 m/s)
Visibility: 6 or more miles (10+ km)
Ceiling: at least 12,000 feet AGL
Clouds: scattered clouds at 2400 feet AGL
Weather: no significant weather observed at this time

METAR text: HKJK 161230Z 15008KT 9999 FEW023 25/15 Q1021 NOSIG
Conditions at: HKJK (NAIROBI/JOMO KEN, KE) observed 1230 UTC 16 June 2019
Temperature: 25.0°C (77°F)
Dewpoint: 15.0°C (59°F) [RH = 54%]
Pressure (altimeter): 30.15 inches Hg (1021.0 mb)
Winds: from the SSE (150 degrees) at 9 MPH (8 knots; 4.1 m/s)
Visibility: 6 or more miles (10+ km)
Ceiling: at least 12,000 feet AGL
Clouds: few clouds at 2300 feet AGL
Weather: no significant weather observed at this time

METAR text: HKJK 161200Z 20006KT 9999 SCT023 24/14 Q1022 NOSIG
Conditions at: HKJK (NAIROBI/JOMO KEN, KE) observed 1200 UTC 16 June 2019
Temperature: 24.0°C (75°F)
Dewpoint: 14.0°C (57°F) [RH = 54%]
Pressure (altimeter): 30.18 inches Hg (1022.0 mb)
Winds: from the SSW (200 degrees) at 7 MPH (6 knots; 3.1 m/s)
Visibility: 6 or more miles (10+ km)
Ceiling: at least 12,000 feet AGL
Clouds: scattered clouds at 2300 feet AGL
Weather: no significant weather observed at this time

METAR text: HKJK 161130Z 19007KT 9999 BKN023 24/15 Q1022 NOSIG
Conditions at: HKJK (NAIROBI/JOMO KEN, KE) observed 1130 UTC 16 June 2019
Temperature: 24.0°C (75°F)
Dewpoint: 15.0°C (59°F) [RH = 57%]
Pressure (altimeter): 30.18 inches Hg (1022.0 mb)
Winds: from the S (190 degrees) at 8 MPH (7 knots; 3.6 m/s)
Visibility: 6 or more miles (10+ km)
Ceiling: 2300 feet AGL
Clouds: broken clouds at 2300 feet AGL
Weather: no significant weather observed at this time

METAR text: HKJK 161100Z 18006KT 9999 BKN022 23/15 Q1022 NOSIG
Conditions at: HKJK (NAIROBI/JOMO KEN, KE) observed 1100 UTC 16 June 2019
Temperature: 23.0°C (73°F)
Dewpoint: 15.0°C (59°F) [RH = 61%]
Pressure (altimeter): 30.18 inches Hg (1022.0 mb)
Winds: from the S (180 degrees) at 7 MPH (6 knots; 3.1 m/s)
Visibility: 6 or more miles (10+ km)
Ceiling: 2200 feet AGL
Clouds: broken clouds at 2200 feet AGL
Weather: no significant weather observed at this time

METAR text: HKJK 161030Z 21010KT 9999 BKN021 22/15 Q1023 NOSIG
Conditions at: HKJK (NAIROBI/JOMO KEN, KE) observed 1030 UTC 16 June 2019
Temperature: 22.0°C (72°F)
Dewpoint: 15.0°C (59°F) [RH = 65%]
Pressure (altimeter): 30.21 inches Hg (1023.0 mb)
Winds: from the SSW (210 degrees) at 12 MPH (10 knots; 5.1 m/s)
Visibility: 6 or more miles (10+ km)
Ceiling: 2100 feet AGL
Clouds: broken clouds at 2100 feet AGL
Weather: no significant weather observed at this time

METAR text: HKJK 161000Z 21011KT 9999 BKN021 22/15 Q1023 NOSIG
Conditions at: HKJK (NAIROBI/JOMO KEN, KE) observed 1000 UTC 16 June 2019
Temperature: 22.0°C (72°F)
Dewpoint: 15.0°C (59°F) [RH = 65%]
Pressure (altimeter): 30.21 inches Hg (1023.0 mb)
Winds: from the SSW (210 degrees) at 13 MPH (11 knots; 5.7 m/s)
Visibility: 6 or more miles (10+ km)
Ceiling: 2100 feet AGL
Clouds: broken clouds at 2100 feet AGL
Weather: no significant weather observed at this time

METAR text: HKJK 160930Z 24007KT 9999 OVC020 22/14 Q1024 NOSIG
Conditions at: HKJK (NAIROBI/JOMO KEN, KE) observed 0930 UTC 16 June 2019
Temperature: 22.0°C (72°F)
Dewpoint: 14.0°C (57°F) [RH = 60%]
Pressure (altimeter): 30.24 inches Hg (1024.0 mb)
Winds: from the WSW (240 degrees) at 8 MPH (7 knots; 3.6 m/s)
Visibility: 6 or more miles (10+ km)
Ceiling: 2000 feet AGL
Clouds: overcast cloud deck at 2000 feet AGL
Weather: no significant weather observed at this time

METAR text: HKJK 160900Z 23008KT 9999 BKN020 21/14 Q1024 NOSIG
Conditions at: HKJK (NAIROBI/JOMO KEN, KE) observed 0900 UTC 16 June 2019
Temperature: 21.0°C (70°F)
Dewpoint: 14.0°C (57°F) [RH = 64%]
Pressure (altimeter): 30.24 inches Hg (1024.0 mb)
Winds: from the SW (230 degrees) at 9 MPH (8 knots; 4.1 m/s)
Visibility: 6 or more miles (10+ km)
Ceiling: 2000 feet AGL
Clouds: broken clouds at 2000 feet AGL
Weather: no significant weather observed at this time

METAR text: HKJK 160830Z 17001KT 9999 BKN019 21/15 Q1025 NOSIG
Conditions at: HKJK (NAIROBI/JOMO KEN, KE) observed 0830 UTC 16 June 2019
Temperature: 21.0°C (70°F)
Dewpoint: 15.0°C (59°F) [RH = 69%]
Pressure (altimeter): 30.27 inches Hg (1025.0 mb)
Winds: from the S (170 degrees) at 1 MPH (1 knots; 0.5 m/s)
Visibility: 6 or more miles (10+ km)
Ceiling: 1900 feet AGL
Clouds: broken clouds at 1900 feet AGL
Weather: no significant weather observed at this time

METAR text: HKJK 160800Z 22005KT 9999 BKN018 19/14 Q1025 NOSIG
Conditions at: HKJK (NAIROBI/JOMO KEN, KE) observed 0800 UTC 16 June 2019
Temperature: 19.0°C (66°F)
Dewpoint: 14.0°C (57°F) [RH = 73%]
Pressure (altimeter): 30.27 inches Hg (1025.0 mb)
Winds: from the SW (220 degrees) at 6 MPH (5 knots; 2.6 m/s)
Visibility: 6 or more miles (10+ km)
Ceiling: 1800 feet AGL
Clouds: broken clouds at 1800 feet AGL
Weather: no significant weather observed at this time

METAR text: HKJK 160730Z 16003KT 9999 BKN017 18/14 Q1025 NOSIG
Conditions at: HKJK (NAIROBI/JOMO KEN, KE) observed 0730 UTC 16 June 2019
Temperature: 18.0°C (64°F)
Dewpoint: 14.0°C (57°F) [RH = 77%]
Pressure (altimeter): 30.27 inches Hg (1025.0 mb)
Winds: from the SSE (160 degrees) at 3 MPH (3 knots; 1.5 m/s)
Visibility: 6 or more miles (10+ km)
Ceiling: 1700 feet AGL
Clouds: broken clouds at 1700 feet AGL
Weather: no significant weather observed at this time

METAR text: HKJK 160700Z 21003KT 9999 BKN017 17/14 Q1025 NOSIG
Conditions at: HKJK (NAIROBI/JOMO KEN, KE) observed 0700 UTC 16 June 2019
Temperature: 17.0°C (63°F)
Dewpoint: 14.0°C (57°F) [RH = 82%]
Pressure (altimeter): 30.27 inches Hg (1025.0 mb)
Winds: from the SSW (210 degrees) at 3 MPH (3 knots; 1.5 m/s)
Visibility: 6 or more miles (10+ km)
Ceiling: 1700 feet AGL
Clouds: broken clouds at 1700 feet AGL
Weather: no significant weather observed at this time

METAR text: HKJK 160630Z 24005KT 9999 BKN018 17/14 Q1025 NOSIG
Conditions at: HKJK (NAIROBI/JOMO KEN, KE) observed 0630 UTC 16 June 2019
Temperature: 17.0°C (63°F)
Dewpoint: 14.0°C (57°F) [RH = 82%]
Pressure (altimeter): 30.27 inches Hg (1025.0 mb)
Winds: from the WSW (240 degrees) at 6 MPH (5 knots; 2.6 m/s)
Visibility: 6 or more miles (10+ km)
Ceiling: 1800 feet AGL
Clouds: broken clouds at 1800 feet AGL
Weather: no significant weather observed at this time

METAR text: HKJK 160600Z 20007KT 9999 BKN020 16/13 Q1026 NOSIG
Conditions at: HKJK (NAIROBI/JOMO KEN, KE) observed 0600 UTC 16 June 2019
Temperature: 16.0°C (61°F)
Dewpoint: 13.0°C (55°F) [RH = 82%]
Pressure (altimeter): 30.30 inches Hg (1026.0 mb)
Winds: from the SSW (200 degrees) at 8 MPH (7 knots; 3.6 m/s)
Visibility: 6 or more miles (10+ km)
Ceiling: 2000 feet AGL
Clouds: broken clouds at 2000 feet AGL
Weather: no significant weather observed at this time

METAR text: HKJK 160530Z 18005KT 9999 OVC019 16/13 Q1025 NOSIG
Conditions at: HKJK (NAIROBI/JOMO KEN, KE) observed 0530 UTC 16 June 2019
Temperature: 16.0°C (61°F)
Dewpoint: 13.0°C (55°F) [RH = 82%]
Pressure (altimeter): 30.27 inches Hg (1025.0 mb)
Winds: from the S (180 degrees) at 6 MPH (5 knots; 2.6 m/s)
Visibility: 6 or more miles (10+ km)
Ceiling: 1900 feet AGL
Clouds: overcast cloud deck at 1900 feet AGL
Weather: no significant weather observed at this time

METAR text: HKJK 160500Z 19004KT 9999 OVC019 15/13 Q1025 NOSIG
Conditions at: HKJK (NAIROBI/JOMO KEN, KE) observed 0500 UTC 16 June 2019
Temperature: 15.0°C (59°F)
Dewpoint: 13.0°C (55°F) [RH = 88%]
Pressure (altimeter): 30.27 inches Hg (1025.0 mb)
Winds: from the S (190 degrees) at 5 MPH (4 knots; 2.1 m/s)
Visibility: 6 or more miles (10+ km)
Ceiling: 1900 feet AGL
Clouds: overcast cloud deck at 1900 feet AGL
Weather: no significant weather observed at this time

METAR text: HKJK 160430Z 17006KT 9999 OVC018 15/13 Q1025 NOSIG
Conditions at: HKJK (NAIROBI/JOMO KEN, KE) observed 0430 UTC 16 June 2019
Temperature: 15.0°C (59°F)
Dewpoint: 13.0°C (55°F) [RH = 88%]
Pressure (altimeter): 30.27 inches Hg (1025.0 mb)
Winds: from the S (170 degrees) at 7 MPH (6 knots; 3.1 m/s)
Visibility: 6 or more miles (10+ km)
Ceiling: 1800 feet AGL
Clouds: overcast cloud deck at 1800 feet AGL
Weather: no significant weather observed at this time

METAR text: HKJK 160400Z 18004KT 9999 OVC018 15/13 Q1024 NOSIG
Conditions at: HKJK (NAIROBI/JOMO KEN, KE) observed 0400 UTC 16 June 2019
Temperature: 15.0°C (59°F)
Dewpoint: 13.0°C (55°F) [RH = 88%]
Pressure (altimeter): 30.24 inches Hg (1024.0 mb)
Winds: from the S (180 degrees) at 5 MPH (4 knots; 2.1 m/s)
Visibility: 6 or more miles (10+ km)
Ceiling: 1800 feet AGL
Clouds: overcast cloud deck at 1800 feet AGL
Weather: no significant weather observed at this time

METAR text: HKJK 160330Z 19009KT 9999 BKN018 15/13 Q1024 NOSIG
Conditions at: HKJK (NAIROBI/JOMO KEN, KE) observed 0330 UTC 16 June 2019
Temperature: 15.0°C (59°F)
Dewpoint: 13.0°C (55°F) [RH = 88%]
Pressure (altimeter): 30.24 inches Hg (1024.0 mb)
Winds: from the S (190 degrees) at 10 MPH (9 knots; 4.6 m/s)
Visibility: 6 or more miles (10+ km)
Ceiling: 1800 feet AGL
Clouds: broken clouds at 1800 feet AGL
Weather: no significant weather observed at this time

METAR text: HKJK 160300Z 19007KT 9999 BKN018 15/13 Q1023 NOSIG
Conditions at: HKJK (NAIROBI/JOMO KEN, KE) observed 0300 UTC 16 June 2019
Temperature: 15.0°C (59°F)
Dewpoint: 13.0°C (55°F) [RH = 88%]
Pressure (altimeter): 30.21 inches Hg (1023.0 mb)
Winds: from the S (190 degrees) at 8 MPH (7 knots; 3.6 m/s)
Visibility: 6 or more miles (10+ km)
Ceiling: 1800 feet AGL
Clouds: broken clouds at 1800 feet AGL
Weather: no significant weather observed at this time

METAR text: HKJK 160230Z 21006KT 9999 BKN018 15/13 Q1023 NOSIG
Conditions at: HKJK (NAIROBI/JOMO KEN, KE) observed 0230 UTC 16 June 2019
Temperature: 15.0°C (59°F)
Dewpoint: 13.0°C (55°F) [RH = 88%]
Pressure (altimeter): 30.21 inches Hg (1023.0 mb)
Winds: from the SSW (210 degrees) at 7 MPH (6 knots; 3.1 m/s)
Visibility: 6 or more miles (10+ km)
Ceiling: 1800 feet AGL
Clouds: broken clouds at 1800 feet AGL
Weather: no significant weather observed at this time

METAR text: HKJK 160200Z 24004KT 9999 BKN018 14/13 Q1023 NOSIG
Conditions at: HKJK (NAIROBI/JOMO KEN, KE) observed 0200 UTC 16 June 2019
Temperature: 14.0°C (57°F)
Dewpoint: 13.0°C (55°F) [RH = 94%]
Pressure (altimeter): 30.21 inches Hg (1023.0 mb)
Winds: from the WSW (240 degrees) at 5 MPH (4 knots; 2.1 m/s)
Visibility: 6 or more miles (10+ km)
Ceiling: 1800 feet AGL
Clouds: broken clouds at 1800 feet AGL
Weather: no significant weather observed at this time

METAR text: HKJK 160130Z 21005KT 9999 SCT018 BKN090 14/13 Q1023 NOSIG
Conditions at: HKJK (NAIROBI/JOMO KEN, KE) observed 0130 UTC 16 June 2019
Temperature: 14.0°C (57°F)
Dewpoint: 13.0°C (55°F) [RH = 94%]
Pressure (altimeter): 30.21 inches Hg (1023.0 mb)
Winds: from the SSW (210 degrees) at 6 MPH (5 knots; 2.6 m/s)
Visibility: 6 or more miles (10+ km)
Ceiling: 9000 feet AGL
Clouds: scattered clouds at 1800 feet AGL
broken clouds at 9000 feet AGL
Weather: no significant weather observed at this time

METAR text: HKJK 160100Z 20006KT 9999 FEW019 BKN090 14/13 Q1022 NOSIG
Conditions at: HKJK (NAIROBI/JOMO KEN, KE) observed 0100 UTC 16 June 2019
Temperature: 14.0°C (57°F)
Dewpoint: 13.0°C (55°F) [RH = 94%]
Pressure (altimeter): 30.18 inches Hg (1022.0 mb)
Winds: from the SSW (200 degrees) at 7 MPH (6 knots; 3.1 m/s)
Visibility: 6 or more miles (10+ km)
Ceiling: 9000 feet AGL
Clouds: few clouds at 1900 feet AGL
broken clouds at 9000 feet AGL
Weather: no significant weather observed at this time

METAR text: HKJK 160030Z 22006KT 9999 SCT019 BKN090 14/13 Q1023 NOSIG
Conditions at: HKJK (NAIROBI/JOMO KEN, KE) observed 0030 UTC 16 June 2019
Temperature: 14.0°C (57°F)
Dewpoint: 13.0°C (55°F) [RH = 94%]
Pressure (altimeter): 30.21 inches Hg (1023.0 mb)
Winds: from the SW (220 degrees) at 7 MPH (6 knots; 3.1 m/s)
Visibility: 6 or more miles (10+ km)
Ceiling: 9000 feet AGL
Clouds: scattered clouds at 1900 feet AGL
broken clouds at 9000 feet AGL
Weather: no significant weather observed at this time

METAR text: HKJK 160000Z 23007KT 9999 FEW019 SCT090 14/13 Q1023 NOSIG
Conditions at: HKJK (NAIROBI/JOMO KEN, KE) observed 0000 UTC 16 June 2019
Temperature: 14.0°C (57°F)
Dewpoint: 13.0°C (55°F) [RH = 94%]
Pressure (altimeter): 30.21 inches Hg (1023.0 mb)
Winds: from the SW (230 degrees) at 8 MPH (7 knots; 3.6 m/s)
Visibility: 6 or more miles (10+ km)
Ceiling: at least 12,000 feet AGL
Clouds: few clouds at 1900 feet AGL
scattered clouds at 9000 feet AGL
Weather: no significant weather observed at this time

METAR text: HKJK 152330Z 23006KT 9999 SCT019 14/13 Q1023 NOSIG
Conditions at: HKJK (NAIROBI/JOMO KEN, KE) observed 2330 UTC 15 June 2019
Temperature: 14.0°C (57°F)
Dewpoint: 13.0°C (55°F) [RH = 94%]
Pressure (altimeter): 30.21 inches Hg (1023.0 mb)
Winds: from the SW (230 degrees) at 7 MPH (6 knots; 3.1 m/s)
Visibility: 6 or more miles (10+ km)
Ceiling: at least 12,000 feet AGL
Clouds: scattered clouds at 1900 feet AGL
Weather: no significant weather observed at this time

METAR text: HKJK 151800Z 13005KT 9999 BKN022 19/14 Q1023 NOSIG
Conditions at: HKJK (NAIROBI/JOMO KEN, KE) observed 1800 UTC 15 June 2019
Temperature: 19.0°C (66°F)
Dewpoint: 14.0°C (57°F) [RH = 73%]
Pressure (altimeter): 30.21 inches Hg (1023.0 mb)
Winds: from the SE (130 degrees) at 6 MPH (5 knots; 2.6 m/s)
Visibility: 6 or more miles (10+ km)
Ceiling: 2200 feet AGL
Clouds: broken clouds at 2200 feet AGL
Weather: no significant weather observed at this time

METAR text: HKJK 151730Z 18007KT 9999 BKN022 19/13 Q1023 NOSIG
Conditions at: HKJK (NAIROBI/JOMO KEN, KE) observed 1730 UTC 15 June 2019
Temperature: 19.0°C (66°F)
Dewpoint: 13.0°C (55°F) [RH = 68%]
Pressure (altimeter): 30.21 inches Hg (1023.0 mb)
Winds: from the S (180 degrees) at 8 MPH (7 knots; 3.6 m/s)
Visibility: 6 or more miles (10+ km)
Ceiling: 2200 feet AGL
Clouds: broken clouds at 2200 feet AGL
Weather: no significant weather observed at this time

METAR text: HKJK 151700Z 16009KT 9999 BKN023 19/14 Q1022 NOSIG
Conditions at: HKJK (NAIROBI/JOMO KEN, KE) observed 1700 UTC 15 June 2019
Temperature: 19.0°C (66°F)
Dewpoint: 14.0°C (57°F) [RH = 73%]
Pressure (altimeter): 30.18 inches Hg (1022.0 mb)
Winds: from the SSE (160 degrees) at 10 MPH (9 knots; 4.6 m/s)
Visibility: 6 or more miles (10+ km)
Ceiling: 2300 feet AGL
Clouds: broken clouds at 2300 feet AGL
Weather: no significant weather observed at this time

METAR text: HKJK 151630Z 14004KT 9999 BKN024 20/14 Q1022 NOSIG
Conditions at: HKJK (NAIROBI/JOMO KEN, KE) observed 1630 UTC 15 June 2019
Temperature: 20.0°C (68°F)
Dewpoint: 14.0°C (57°F) [RH = 68%]
Pressure (altimeter): 30.18 inches Hg (1022.0 mb)
Winds: from the SE (140 degrees) at 5 MPH (4 knots; 2.1 m/s)
Visibility: 6 or more miles (10+ km)
Ceiling: 2400 feet AGL
Clouds: broken clouds at 2400 feet AGL
Weather: no significant weather observed at this time

METAR text: HKJK 151600Z 16006KT 9999 BKN024 20/14 Q1022 NOSIG
Conditions at: HKJK (NAIROBI/JOMO KEN, KE) observed 1600 UTC 15 June 2019
Temperature: 20.0°C (68°F)
Dewpoint: 14.0°C (57°F) [RH = 68%]
Pressure (altimeter): 30.18 inches Hg (1022.0 mb)
Winds: from the SSE (160 degrees) at 7 MPH (6 knots; 3.1 m/s)
Visibility: 6 or more miles (10+ km)
Ceiling: 2400 feet AGL
Clouds: broken clouds at 2400 feet AGL
Weather: no significant weather observed at this time

METAR text: HKJK 151430Z 17005KT 9999 SCT025 21/14 Q1021 NOSIG
Conditions at: HKJK (NAIROBI/JOMO KEN, KE) observed 1430 UTC 15 June 2019
Temperature: 21.0°C (70°F)
Dewpoint: 14.0°C (57°F) [RH = 64%]
Pressure (altimeter): 30.15 inches Hg (1021.0 mb)
Winds: from the S (170 degrees) at 6 MPH (5 knots; 2.6 m/s)
Visibility: 6 or more miles (10+ km)
Ceiling: at least 12,000 feet AGL
Clouds: scattered clouds at 2500 feet AGL
Weather: no significant weather observed at this time

METAR text: HKJK 151230Z 17009KT 9999 BKN027 22/14 Q1021 NOSIG
Conditions at: HKJK (NAIROBI/JOMO KEN, KE) observed 1230 UTC 15 June 2019
Temperature: 22.0°C (72°F)
Dewpoint: 14.0°C (57°F) [RH = 60%]
Pressure (altimeter): 30.15 inches Hg (1021.0 mb)
Winds: from the S (170 degrees) at 10 MPH (9 knots; 4.6 m/s)
Visibility: 6 or more miles (10+ km)
Ceiling: 2700 feet AGL
Clouds: broken clouds at 2700 feet AGL
Weather: no significant weather observed at this time

METAR text: HKJK 151200Z 18007KT 9999 BKN026 22/14 Q1022 NOSIG
Conditions at: HKJK (NAIROBI/JOMO KEN, KE) observed 1200 UTC 15 June 2019
Temperature: 22.0°C (72°F)
Dewpoint: 14.0°C (57°F) [RH = 60%]
Pressure (altimeter): 30.18 inches Hg (1022.0 mb)
Winds: from the S (180 degrees) at 8 MPH (7 knots; 3.6 m/s)
Visibility: 6 or more miles (10+ km)
Ceiling: 2600 feet AGL
Clouds: broken clouds at 2600 feet AGL
Weather: no significant weather observed at this time

METAR text: HKJK 151130Z 19007KT 9999 BKN026 22/14 Q1022 NOSIG
Conditions at: HKJK (NAIROBI/JOMO KEN, KE) observed 1130 UTC 15 June 2019
Temperature: 22.0°C (72°F)
Dewpoint: 14.0°C (57°F) [RH = 60%]
Pressure (altimeter): 30.18 inches Hg (1022.0 mb)
Winds: from the S (190 degrees) at 8 MPH (7 knots; 3.6 m/s)
Visibility: 6 or more miles (10+ km)
Ceiling: 2600 feet AGL
Clouds: broken clouds at 2600 feet AGL
Weather: no significant weather observed at this time

METAR text: HKJK 151100Z 21007KT 9999 BKN026 21/13 Q1023 NOSIG
Conditions at: HKJK (NAIROBI/JOMO KEN, KE) observed 1100 UTC 15 June 2019
Temperature: 21.0°C (70°F)
Dewpoint: 13.0°C (55°F) [RH = 60%]
Pressure (altimeter): 30.21 inches Hg (1023.0 mb)
Winds: from the SSW (210 degrees) at 8 MPH (7 knots; 3.6 m/s)
Visibility: 6 or more miles (10+ km)
Ceiling: 2600 feet AGL
Clouds: broken clouds at 2600 feet AGL
Weather: no significant weather observed at this time

METAR text: HKJK 151030Z 21005KT 9999 BKN026 21/14 Q1023 NOSIG
Conditions at: HKJK (NAIROBI/JOMO KEN, KE) observed 1030 UTC 15 June 2019
Temperature: 21.0°C (70°F)
Dewpoint: 14.0°C (57°F) [RH = 64%]
Pressure (altimeter): 30.21 inches Hg (1023.0 mb)
Winds: from the SSW (210 degrees) at 6 MPH (5 knots; 2.6 m/s)
Visibility: 6 or more miles (10+ km)
Ceiling: 2600 feet AGL
Clouds: broken clouds at 2600 feet AGL
Weather: no significant weather observed at this time

METAR text: HKJK 151000Z 19009KT 9999 SCT025 22/13 Q1023 NOSIG
Conditions at: HKJK (NAIROBI/JOMO KEN, KE) observed 1000 UTC 15 June 2019
Temperature: 22.0°C (72°F)
Dewpoint: 13.0°C (55°F) [RH = 57%]
Pressure (altimeter): 30.21 inches Hg (1023.0 mb)
Winds: from the S (190 degrees) at 10 MPH (9 knots; 4.6 m/s)
Visibility: 6 or more miles (10+ km)
Ceiling: at least 12,000 feet AGL
Clouds: scattered clouds at 2500 feet AGL
Weather: no significant weather observed at this time

METAR text: HKJK 150930Z 22007KT 9999 SCT025 21/14 Q1024 NOSIG
Conditions at: HKJK (NAIROBI/JOMO KEN, KE) observed 0930 UTC 15 June 2019
Temperature: 21.0°C (70°F)
Dewpoint: 14.0°C (57°F) [RH = 64%]
Pressure (altimeter): 30.24 inches Hg (1024.0 mb)
Winds: from the SW (220 degrees) at 8 MPH (7 knots; 3.6 m/s)
Visibility: 6 or more miles (10+ km)
Ceiling: at least 12,000 feet AGL
Clouds: scattered clouds at 2500 feet AGL
Weather: no significant weather observed at this time

METAR text: HKJK 150900Z 18006KT 9999 BKN024 19/13 Q1025 NOSIG
Conditions at: HKJK (NAIROBI/JOMO KEN, KE) observed 0900 UTC 15 June 2019
Temperature: 19.0°C (66°F)
Dewpoint: 13.0°C (55°F) [RH = 68%]
Pressure (altimeter): 30.27 inches Hg (1025.0 mb)
Winds: from the S (180 degrees) at 7 MPH (6 knots; 3.1 m/s)
Visibility: 6 or more miles (10+ km)
Ceiling: 2400 feet AGL
Clouds: broken clouds at 2400 feet AGL
Weather: no significant weather observed at this time

METAR text: HKJK 150830Z VRB03KT 9999 BKN023 19/14 Q1025 NOSIG
Conditions at: HKJK (NAIROBI/JOMO KEN, KE) observed 0830 UTC 15 June 2019
Temperature: 19.0°C (66°F)
Dewpoint: 14.0°C (57°F) [RH = 73%]
Pressure (altimeter): 30.27 inches Hg (1025.0 mb)
Winds: variable direction winds at 3 MPH (3 knots; 1.5 m/s)
Visibility: 6 or more miles (10+ km)
Ceiling: 2300 feet AGL
Clouds: broken clouds at 2300 feet AGL
Weather: no significant weather observed at this time

METAR text: HKJK 150800Z VRB02KT 9999 BKN022 19/13 Q1025 NOSIG
Conditions at: HKJK (NAIROBI/JOMO KEN, KE) observed 0800 UTC 15 June 2019
Temperature: 19.0°C (66°F)
Dewpoint: 13.0°C (55°F) [RH = 68%]
Pressure (altimeter): 30.27 inches Hg (1025.0 mb)
Winds: variable direction winds at 2 MPH (2 knots; 1.0 m/s)
Visibility: 6 or more miles (10+ km)
Ceiling: 2200 feet AGL
Clouds: broken clouds at 2200 feet AGL
Weather: no significant weather observed at this time

METAR text: HKJK 150730Z 18004KT 9999 BKN21 18/13 Q1026 NOSIG
Conditions at: HKJK (NAIROBI/JOMO KEN, KE) observed 0730 UTC 15 June 2019
Temperature: 18.0°C (64°F)
Dewpoint: 13.0°C (55°F) [RH = 73%]
Pressure (altimeter): 30.30 inches Hg (1026.0 mb)
Winds: from the S (180 degrees) at 5 MPH (4 knots; 2.1 m/s)
Visibility: 6 or more miles (10+ km)
Ceiling: unknown
Clouds: missing
Weather: no significant weather observed at this time

METAR text: HKJK 150700Z 19004KT 9999 BKN020 18/14 Q1026 NOSIG
Conditions at: HKJK (NAIROBI/JOMO KEN, KE) observed 0700 UTC 15 June 2019
Temperature: 18.0°C (64°F)
Dewpoint: 14.0°C (57°F) [RH = 77%]
Pressure (altimeter): 30.30 inches Hg (1026.0 mb)
Winds: from the S (190 degrees) at 5 MPH (4 knots; 2.1 m/s)
Visibility: 6 or more miles (10+ km)
Ceiling: 2000 feet AGL
Clouds: broken clouds at 2000 feet AGL
Weather: no significant weather observed at this time

METAR text: HKJK 150630Z 18006KT 9999 BKN020 17/13 Q1025 NOSIG
Conditions at: HKJK (NAIROBI/JOMO KEN, KE) observed 0630 UTC 15 June 2019
Temperature: 17.0°C (63°F)
Dewpoint: 13.0°C (55°F) [RH = 77%]
Pressure (altimeter): 30.27 inches Hg (1025.0 mb)
Winds: from the S (180 degrees) at 7 MPH (6 knots; 3.1 m/s)
Visibility: 6 or more miles (10+ km)
Ceiling: 2000 feet AGL
Clouds: broken clouds at 2000 feet AGL
Weather: no significant weather observed at this time

METAR text: HKJK 150600Z 19007KT 9999 BKN019 17/13 Q1025 NOSIG
Conditions at: HKJK (NAIROBI/JOMO KEN, KE) observed 0600 UTC 15 June 2019
Temperature: 17.0°C (63°F)
Dewpoint: 13.0°C (55°F) [RH = 77%]
Pressure (altimeter): 30.27 inches Hg (1025.0 mb)
Winds: from the S (190 degrees) at 8 MPH (7 knots; 3.6 m/s)
Visibility: 6 or more miles (10+ km)
Ceiling: 1900 feet AGL
Clouds: broken clouds at 1900 feet AGL
Weather: no significant weather observed at this time

METAR text: HKJK 150530Z 18005KT 9999 BKN018 16/13 Q1025 NOSIG
Conditions at: HKJK (NAIROBI/JOMO KEN, KE) observed 0530 UTC 15 June 2019
Temperature: 16.0°C (61°F)
Dewpoint: 13.0°C (55°F) [RH = 82%]
Pressure (altimeter): 30.27 inches Hg (1025.0 mb)
Winds: from the S (180 degrees) at 6 MPH (5 knots; 2.6 m/s)
Visibility: 6 or more miles (10+ km)
Ceiling: 1800 feet AGL
Clouds: broken clouds at 1800 feet AGL
Weather: no significant weather observed at this time

METAR text: HKJK 150500Z 20006KT 9999 SCT018 OVC080 16/13 Q1024 NOSIG
Conditions at: HKJK (NAIROBI/JOMO KEN, KE) observed 0500 UTC 15 June 2019
Temperature: 16.0°C (61°F)
Dewpoint: 13.0°C (55°F) [RH = 82%]
Pressure (altimeter): 30.24 inches Hg (1024.0 mb)
Winds: from the SSW (200 degrees) at 7 MPH (6 knots; 3.1 m/s)
Visibility: 6 or more miles (10+ km)
Ceiling: 8000 feet AGL
Clouds: scattered clouds at 1800 feet AGL
overcast cloud deck at 8000 feet AGL
Weather: no significant weather observed at this time

Forecast for: HKJK (NAIROBI/JOMO KEN, KE)
Text: TAF HKJK 161100Z 1612/1718 18010KT 9999 BKN024
Forecast period: 1200 to 2000 UTC 16 June 2019
Forecast type: FROM: standard forecast or significant change
Winds: from the S (180 degrees) at 12 MPH (10 knots; 5.1 m/s)
Visibility: 6 or more miles 10+ km)
Ceiling: 2400 feet AGL
Clouds: broken clouds at 2400 feet AGL
Weather: no significant weather forecast for this period
Text: BECMG 1620/1623 VRB05KT SCT020 BKN080
Forecast period: 2000 UTC 16 June 2019 to 0800 UTC 17 June 2019
Forecast type: BECOMING: Conditions expected to become as follows by 2300 UTC 16 June 2019
Winds: variable direction winds at 6 MPH (5 knots; 2.6 m/s)
Visibility: 6 or more miles 10+ km)
Ceiling: 8000 feet AGL
Clouds: scattered clouds at 2000 feet AGL
broken clouds at 8000 feet AGL
Weather: no significant weather forecast for this period
Text: TEMPO 1700/1706 18005KT OVC018
Forecast period: 0000 to 0600 UTC 17 June 2019
Forecast type: TEMPORARY: The following changes expected for less than half the time period
Winds: from the S (180 degrees) at 6 MPH (5 knots; 2.6 m/s)
Visibility: missing
Ceiling: 1800 feet AGL
Clouds: overcast cloud deck at 1800 feet AGL
Weather: no significant weather forecast for this period
Text: BECMG 1708/1711 18010KT BKN024
Forecast period: 0800 to 1800 UTC 17 June 2019
Forecast type: BECOMING: Conditions expected to become as follows by 1100 UTC 17 June 2019
Winds: from the S (180 degrees) at 12 MPH (10 knots; 5.1 m/s)
Visibility: 6 or more miles 10+ km)
Ceiling: 2400 feet AGL
Clouds: broken clouds at 2400 feet AGL
Weather: no significant weather forecast for this period